sensor_id;sensor_type;location;lat;lon;timestamp;P1;durP1;ratioP1;P2;durP2;ratioP2
31004;SDS011;17676;52.254;4.490;2023-12-14T00:00:21;12.13;;;8.23;;
31004;SDS011;17676;52.254;4.490;2023-12-14T00:02:47;11.55;;;8.10;;
31004;SDS011;17676;52.254;4.490;2023-12-14T00:05:12;12.70;;;8.07;;
31004;SDS011;17676;52.254;4.490;2023-12-14T00:07:38;11.88;;;8.38;;
31004;SDS011;17676;52.254;4.490;2023-12-14T00:10:03;15.32;;;8.25;;
31004;SDS011;17676;52.254;4.490;2023-12-14T00:12:30;12.57;;;8.10;;
31004;SDS011;17676;52.254;4.490;2023-12-14T00:14:56;15.73;;;8.50;;
31004;SDS011;17676;52.254;4.490;2023-12-14T00:17:21;13.55;;;8.05;;
31004;SDS011;17676;52.254;4.490;2023-12-14T00:19:47;13.00;;;8.38;;
31004;SDS011;17676;52.254;4.490;2023-12-14T00:22:13;11.23;;;8.15;;
31004;SDS011;17676;52.254;4.490;2023-12-14T00:24:38;12.35;;;7.63;;
31004;SDS011;17676;52.254;4.490;2023-12-14T00:27:04;13.88;;;9.27;;
31004;SDS011;17676;52.254;4.490;2023-12-14T00:29:30;14.45;;;8.57;;
31004;SDS011;17676;52.254;4.490;2023-12-14T00:31:55;14.85;;;8.57;;
31004;SDS011;17676;52.254;4.490;2023-12-14T00:34:21;14.88;;;9.15;;
31004;SDS011;17676;52.254;4.490;2023-12-14T00:36:47;17.35;;;9.32;;
31004;SDS011;17676;52.254;4.490;2023-12-14T00:39:13;15.93;;;9.07;;
31004;SDS011;17676;52.254;4.490;2023-12-14T00:41:39;14.98;;;8.30;;
31004;SDS011;17676;52.254;4.490;2023-12-14T00:44:08;16.80;;;8.38;;
31004;SDS011;17676;52.254;4.490;2023-12-14T00:46:34;13.70;;;8.85;;
31004;SDS011;17676;52.254;4.490;2023-12-14T00:49:00;15.52;;;8.35;;
31004;SDS011;17676;52.254;4.490;2023-12-14T00:51:27;16.98;;;8.98;;
31004;SDS011;17676;52.254;4.490;2023-12-14T00:53:52;14.65;;;7.95;;
31004;SDS011;17676;52.254;4.490;2023-12-14T00:56:18;13.82;;;9.55;;
31004;SDS011;17676;52.254;4.490;2023-12-14T00:58:44;16.30;;;9.40;;
31004;SDS011;17676;52.254;4.490;2023-12-14T01:01:09;14.30;;;8.55;;
31004;SDS011;17676;52.254;4.490;2023-12-14T01:03:35;14.13;;;8.68;;
31004;SDS011;17676;52.254;4.490;2023-12-14T01:06:01;14.15;;;8.90;;
31004;SDS011;17676;52.254;4.490;2023-12-14T01:08:26;19.42;;;8.68;;
31004;SDS011;17676;52.254;4.490;2023-12-14T01:10:52;14.68;;;8.98;;
31004;SDS011;17676;52.254;4.490;2023-12-14T01:13:18;17.13;;;8.70;;
31004;SDS011;17676;52.254;4.490;2023-12-14T01:15:43;16.63;;;8.85;;
31004;SDS011;17676;52.254;4.490;2023-12-14T01:18:09;15.90;;;9.20;;
31004;SDS011;17676;52.254;4.490;2023-12-14T01:20:35;11.60;;;7.72;;
31004;SDS011;17676;52.254;4.490;2023-12-14T01:23:01;18.83;;;8.45;;
31004;SDS011;17676;52.254;4.490;2023-12-14T01:25:26;14.00;;;8.30;;
31004;SDS011;17676;52.254;4.490;2023-12-14T01:27:52;15.88;;;8.00;;
31004;SDS011;17676;52.254;4.490;2023-12-14T01:30:18;10.95;;;7.43;;
31004;SDS011;17676;52.254;4.490;2023-12-14T01:32:43;11.90;;;7.28;;
31004;SDS011;17676;52.254;4.490;2023-12-14T01:35:09;12.63;;;8.00;;
31004;SDS011;17676;52.254;4.490;2023-12-14T01:37:35;17.38;;;7.45;;
31004;SDS011;17676;52.254;4.490;2023-12-14T01:40:01;18.58;;;8.43;;
31004;SDS011;17676;52.254;4.490;2023-12-14T01:42:26;13.85;;;7.60;;
31004;SDS011;17676;52.254;4.490;2023-12-14T01:44:54;16.13;;;7.30;;
31004;SDS011;17676;52.254;4.490;2023-12-14T01:47:20;12.98;;;7.05;;
31004;SDS011;17676;52.254;4.490;2023-12-14T01:49:45;12.98;;;7.25;;
31004;SDS011;17676;52.254;4.490;2023-12-14T01:52:13;11.82;;;7.10;;
31004;SDS011;17676;52.254;4.490;2023-12-14T01:54:39;10.65;;;6.13;;
31004;SDS011;17676;52.254;4.490;2023-12-14T01:57:05;9.77;;;6.15;;
31004;SDS011;17676;52.254;4.490;2023-12-14T01:59:30;17.10;;;6.97;;
31004;SDS011;17676;52.254;4.490;2023-12-14T02:01:56;10.20;;;5.82;;
31004;SDS011;17676;52.254;4.490;2023-12-14T02:04:23;9.45;;;5.80;;
31004;SDS011;17676;52.254;4.490;2023-12-14T02:06:50;12.60;;;7.07;;
31004;SDS011;17676;52.254;4.490;2023-12-14T02:09:16;12.02;;;6.43;;
31004;SDS011;17676;52.254;4.490;2023-12-14T02:11:42;11.15;;;5.93;;
31004;SDS011;17676;52.254;4.490;2023-12-14T02:14:11;10.52;;;5.47;;
31004;SDS011;17676;52.254;4.490;2023-12-14T02:16:37;13.57;;;6.65;;
31004;SDS011;17676;52.254;4.490;2023-12-14T02:19:06;10.35;;;6.68;;
31004;SDS011;17676;52.254;4.490;2023-12-14T02:21:34;10.13;;;6.15;;
31004;SDS011;17676;52.254;4.490;2023-12-14T02:24:00;14.15;;;5.55;;
31004;SDS011;17676;52.254;4.490;2023-12-14T02:26:25;10.68;;;6.13;;
31004;SDS011;17676;52.254;4.490;2023-12-14T02:28:51;10.93;;;5.55;;
31004;SDS011;17676;52.254;4.490;2023-12-14T02:31:19;14.32;;;6.30;;
31004;SDS011;17676;52.254;4.490;2023-12-14T02:33:45;12.60;;;5.80;;
31004;SDS011;17676;52.254;4.490;2023-12-14T02:36:11;10.05;;;5.22;;
31004;SDS011;17676;52.254;4.490;2023-12-14T02:38:36;14.10;;;6.00;;
31004;SDS011;17676;52.254;4.490;2023-12-14T02:41:02;11.18;;;5.57;;
31004;SDS011;17676;52.254;4.490;2023-12-14T02:43:28;13.30;;;5.45;;
31004;SDS011;17676;52.254;4.490;2023-12-14T02:45:53;8.55;;;4.53;;
31004;SDS011;17676;52.254;4.490;2023-12-14T02:48:24;14.40;;;5.72;;
31004;SDS011;17676;52.254;4.490;2023-12-14T02:50:50;9.82;;;5.05;;
31004;SDS011;17676;52.254;4.490;2023-12-14T02:53:16;12.75;;;5.45;;
31004;SDS011;17676;52.254;4.490;2023-12-14T02:55:41;13.10;;;4.22;;
31004;SDS011;17676;52.254;4.490;2023-12-14T02:58:07;10.85;;;4.35;;
31004;SDS011;17676;52.254;4.490;2023-12-14T03:00:33;10.20;;;4.57;;
31004;SDS011;17676;52.254;4.490;2023-12-14T03:02:58;9.68;;;4.53;;
31004;SDS011;17676;52.254;4.490;2023-12-14T03:05:24;7.15;;;4.50;;
31004;SDS011;17676;52.254;4.490;2023-12-14T03:07:50;10.15;;;4.18;;
31004;SDS011;17676;52.254;4.490;2023-12-14T03:10:16;13.55;;;4.60;;
31004;SDS011;17676;52.254;4.490;2023-12-14T03:12:41;8.48;;;4.43;;
31004;SDS011;17676;52.254;4.490;2023-12-14T03:15:07;11.88;;;3.88;;
31004;SDS011;17676;52.254;4.490;2023-12-14T03:17:33;8.40;;;3.60;;
31004;SDS011;17676;52.254;4.490;2023-12-14T03:19:58;7.95;;;4.55;;
31004;SDS011;17676;52.254;4.490;2023-12-14T03:22:31;8.70;;;4.18;;
31004;SDS011;17676;52.254;4.490;2023-12-14T03:24:57;10.65;;;3.13;;
31004;SDS011;17676;52.254;4.490;2023-12-14T03:27:23;7.18;;;3.55;;
31004;SDS011;17676;52.254;4.490;2023-12-14T03:29:51;7.82;;;3.40;;
31004;SDS011;17676;52.254;4.490;2023-12-14T03:32:17;7.40;;;4.15;;
31004;SDS011;17676;52.254;4.490;2023-12-14T03:34:42;7.65;;;3.50;;
31004;SDS011;17676;52.254;4.490;2023-12-14T03:37:08;10.48;;;3.45;;
31004;SDS011;17676;52.254;4.490;2023-12-14T03:39:34;4.57;;;2.45;;
31004;SDS011;17676;52.254;4.490;2023-12-14T03:42:00;6.90;;;2.78;;
31004;SDS011;17676;52.254;4.490;2023-12-14T03:44:25;8.77;;;3.10;;
31004;SDS011;17676;52.254;4.490;2023-12-14T03:46:51;12.10;;;3.30;;
31004;SDS011;17676;52.254;4.490;2023-12-14T03:49:17;4.53;;;2.35;;
31004;SDS011;17676;52.254;4.490;2023-12-14T03:51:42;8.65;;;2.85;;
31004;SDS011;17676;52.254;4.490;2023-12-14T03:54:08;7.18;;;2.63;;
31004;SDS011;17676;52.254;4.490;2023-12-14T03:56:34;3.80;;;2.03;;
31004;SDS011;17676;52.254;4.490;2023-12-14T03:59:00;8.23;;;2.25;;
31004;SDS011;17676;52.254;4.490;2023-12-14T04:01:25;5.03;;;2.05;;
31004;SDS011;17676;52.254;4.490;2023-12-14T04:03:54;5.60;;;2.17;;
31004;SDS011;17676;52.254;4.490;2023-12-14T04:06:22;7.18;;;2.63;;
31004;SDS011;17676;52.254;4.490;2023-12-14T04:08:49;8.80;;;2.78;;
31004;SDS011;17676;52.254;4.490;2023-12-14T04:11:14;4.88;;;2.22;;
31004;SDS011;17676;52.254;4.490;2023-12-14T04:13:40;5.53;;;2.92;;
31004;SDS011;17676;52.254;4.490;2023-12-14T04:16:06;5.88;;;2.97;;
31004;SDS011;17676;52.254;4.490;2023-12-14T04:18:31;6.57;;;2.53;;
31004;SDS011;17676;52.254;4.490;2023-12-14T04:20:57;11.00;;;2.45;;
31004;SDS011;17676;52.254;4.490;2023-12-14T04:23:23;6.75;;;2.40;;
31004;SDS011;17676;52.254;4.490;2023-12-14T04:25:48;2.55;;;1.85;;
31004;SDS011;17676;52.254;4.490;2023-12-14T04:28:14;7.90;;;1.92;;
31004;SDS011;17676;52.254;4.490;2023-12-14T04:30:40;5.05;;;1.80;;
31004;SDS011;17676;52.254;4.490;2023-12-14T04:33:06;7.40;;;1.33;;
31004;SDS011;17676;52.254;4.490;2023-12-14T04:35:31;2.42;;;1.23;;
31004;SDS011;17676;52.254;4.490;2023-12-14T04:38:01;1.38;;;0.93;;
31004;SDS011;17676;52.254;4.490;2023-12-14T04:40:27;4.35;;;1.35;;
31004;SDS011;17676;52.254;4.490;2023-12-14T04:42:53;6.57;;;1.60;;
31004;SDS011;17676;52.254;4.490;2023-12-14T04:45:18;2.63;;;1.40;;
31004;SDS011;17676;52.254;4.490;2023-12-14T04:47:44;3.45;;;1.88;;
31004;SDS011;17676;52.254;4.490;2023-12-14T04:50:09;3.17;;;1.30;;
31004;SDS011;17676;52.254;4.490;2023-12-14T04:52:35;5.47;;;1.60;;
31004;SDS011;17676;52.254;4.490;2023-12-14T04:55:01;4.40;;;1.30;;
31004;SDS011;17676;52.254;4.490;2023-12-14T04:57:27;5.55;;;1.40;;
31004;SDS011;17676;52.254;4.490;2023-12-14T04:59:53;5.28;;;1.73;;
31004;SDS011;17676;52.254;4.490;2023-12-14T05:02:19;6.10;;;1.30;;
31004;SDS011;17676;52.254;4.490;2023-12-14T05:04:45;5.32;;;1.70;;
31004;SDS011;17676;52.254;4.490;2023-12-14T05:07:10;7.20;;;2.08;;
31004;SDS011;17676;52.254;4.490;2023-12-14T05:09:36;3.67;;;2.00;;
31004;SDS011;17676;52.254;4.490;2023-12-14T05:12:02;5.30;;;1.98;;
31004;SDS011;17676;52.254;4.490;2023-12-14T05:14:27;6.82;;;1.70;;
31004;SDS011;17676;52.254;4.490;2023-12-14T05:16:54;2.97;;;2.13;;
31004;SDS011;17676;52.254;4.490;2023-12-14T05:19:20;4.25;;;2.03;;
31004;SDS011;17676;52.254;4.490;2023-12-14T05:21:45;9.82;;;2.28;;
31004;SDS011;17676;52.254;4.490;2023-12-14T05:24:11;6.13;;;2.10;;
31004;SDS011;17676;52.254;4.490;2023-12-14T05:26:37;7.63;;;1.95;;
31004;SDS011;17676;52.254;4.490;2023-12-14T05:29:03;5.35;;;1.70;;
31004;SDS011;17676;52.254;4.490;2023-12-14T05:31:29;4.15;;;1.80;;
31004;SDS011;17676;52.254;4.490;2023-12-14T05:33:55;5.18;;;1.95;;
31004;SDS011;17676;52.254;4.490;2023-12-14T05:36:20;6.07;;;2.38;;
31004;SDS011;17676;52.254;4.490;2023-12-14T05:38:46;6.88;;;2.60;;
31004;SDS011;17676;52.254;4.490;2023-12-14T05:41:12;4.50;;;2.30;;
31004;SDS011;17676;52.254;4.490;2023-12-14T05:43:38;5.63;;;2.15;;
31004;SDS011;17676;52.254;4.490;2023-12-14T05:46:04;5.88;;;2.30;;
31004;SDS011;17676;52.254;4.490;2023-12-14T05:48:30;6.07;;;2.60;;
31004;SDS011;17676;52.254;4.490;2023-12-14T05:50:56;6.60;;;2.35;;
31004;SDS011;17676;52.254;4.490;2023-12-14T05:53:22;5.32;;;2.88;;
31004;SDS011;17676;52.254;4.490;2023-12-14T05:55:48;5.57;;;2.78;;
31004;SDS011;17676;52.254;4.490;2023-12-14T05:58:16;5.63;;;3.00;;
31004;SDS011;17676;52.254;4.490;2023-12-14T06:00:42;4.72;;;2.78;;
31004;SDS011;17676;52.254;4.490;2023-12-14T06:03:07;5.78;;;3.17;;
31004;SDS011;17676;52.254;4.490;2023-12-14T06:05:33;5.40;;;2.70;;
31004;SDS011;17676;52.254;4.490;2023-12-14T06:07:58;5.22;;;3.13;;
31004;SDS011;17676;52.254;4.490;2023-12-14T06:10:24;8.50;;;3.05;;
31004;SDS011;17676;52.254;4.490;2023-12-14T06:12:50;9.57;;;4.13;;
31004;SDS011;17676;52.254;4.490;2023-12-14T06:15:16;4.43;;;3.33;;
31004;SDS011;17676;52.254;4.490;2023-12-14T06:17:41;8.05;;;3.67;;
31004;SDS011;17676;52.254;4.490;2023-12-14T06:20:07;6.85;;;3.70;;
31004;SDS011;17676;52.254;4.490;2023-12-14T06:22:39;9.68;;;3.72;;
31004;SDS011;17676;52.254;4.490;2023-12-14T06:25:05;8.40;;;3.78;;
31004;SDS011;17676;52.254;4.490;2023-12-14T06:27:30;5.70;;;3.80;;
31004;SDS011;17676;52.254;4.490;2023-12-14T06:29:56;12.02;;;4.05;;
31004;SDS011;17676;52.254;4.490;2023-12-14T06:32:21;8.50;;;3.92;;
31004;SDS011;17676;52.254;4.490;2023-12-14T06:34:47;6.15;;;3.95;;
31004;SDS011;17676;52.254;4.490;2023-12-14T06:37:13;7.95;;;4.55;;
31004;SDS011;17676;52.254;4.490;2023-12-14T06:39:42;8.13;;;4.38;;
31004;SDS011;17676;52.254;4.490;2023-12-14T06:42:08;6.55;;;4.10;;
31004;SDS011;17676;52.254;4.490;2023-12-14T06:44:33;7.82;;;4.93;;
31004;SDS011;17676;52.254;4.490;2023-12-14T06:46:59;7.00;;;4.63;;
31004;SDS011;17676;52.254;4.490;2023-12-14T06:49:25;6.75;;;4.47;;
31004;SDS011;17676;52.254;4.490;2023-12-14T06:51:50;8.05;;;4.57;;
31004;SDS011;17676;52.254;4.490;2023-12-14T06:54:16;6.10;;;4.53;;
31004;SDS011;17676;52.254;4.490;2023-12-14T06:56:42;7.50;;;5.03;;
31004;SDS011;17676;52.254;4.490;2023-12-14T06:59:08;9.93;;;4.47;;
31004;SDS011;17676;52.254;4.490;2023-12-14T07:01:42;9.82;;;4.30;;
31004;SDS011;17676;52.254;4.490;2023-12-14T07:04:08;7.32;;;4.50;;
31004;SDS011;17676;52.254;4.490;2023-12-14T07:06:34;5.47;;;3.78;;
31004;SDS011;17676;52.254;4.490;2023-12-14T07:09:00;6.90;;;3.72;;
31004;SDS011;17676;52.254;4.490;2023-12-14T07:11:27;7.43;;;4.20;;
31004;SDS011;17676;52.254;4.490;2023-12-14T07:13:52;9.40;;;5.22;;
31004;SDS011;17676;52.254;4.490;2023-12-14T07:16:18;7.85;;;4.70;;
31004;SDS011;17676;52.254;4.490;2023-12-14T07:18:43;7.68;;;4.65;;
31004;SDS011;17676;52.254;4.490;2023-12-14T07:21:18;8.10;;;4.82;;
31004;SDS011;17676;52.254;4.490;2023-12-14T07:23:43;11.23;;;4.90;;
31004;SDS011;17676;52.254;4.490;2023-12-14T07:26:17;6.70;;;4.80;;
31004;SDS011;17676;52.254;4.490;2023-12-14T07:28:42;8.85;;;4.72;;
31004;SDS011;17676;52.254;4.490;2023-12-14T07:31:08;8.05;;;4.82;;
31004;SDS011;17676;52.254;4.490;2023-12-14T07:33:33;10.15;;;5.13;;
31004;SDS011;17676;52.254;4.490;2023-12-14T07:36:00;8.33;;;5.27;;
31004;SDS011;17676;52.254;4.490;2023-12-14T07:38:29;8.88;;;4.72;;
31004;SDS011;17676;52.254;4.490;2023-12-14T07:40:55;8.93;;;4.40;;
31004;SDS011;17676;52.254;4.490;2023-12-14T07:43:20;8.90;;;4.93;;
31004;SDS011;17676;52.254;4.490;2023-12-14T07:45:46;9.87;;;4.80;;
31004;SDS011;17676;52.254;4.490;2023-12-14T07:48:12;6.20;;;4.38;;
31004;SDS011;17676;52.254;4.490;2023-12-14T07:50:38;7.27;;;4.53;;
31004;SDS011;17676;52.254;4.490;2023-12-14T07:53:03;8.33;;;4.97;;
31004;SDS011;17676;52.254;4.490;2023-12-14T07:55:30;9.13;;;4.93;;
31004;SDS011;17676;52.254;4.490;2023-12-14T07:57:56;5.77;;;4.17;;
31004;SDS011;17676;52.254;4.490;2023-12-14T08:00:22;7.03;;;4.43;;
31004;SDS011;17676;52.254;4.490;2023-12-14T08:02:47;7.37;;;5.00;;
31004;SDS011;17676;52.254;4.490;2023-12-14T08:05:13;8.83;;;4.33;;
31004;SDS011;17676;52.254;4.490;2023-12-14T08:07:38;8.07;;;4.77;;
31004;SDS011;17676;52.254;4.490;2023-12-14T08:10:04;8.80;;;4.50;;
31004;SDS011;17676;52.254;4.490;2023-12-14T08:12:30;10.27;;;4.53;;
31004;SDS011;17676;52.254;4.490;2023-12-14T08:14:56;7.27;;;4.80;;
31004;SDS011;17676;52.254;4.490;2023-12-14T08:17:21;6.03;;;3.93;;
31004;SDS011;17676;52.254;4.490;2023-12-14T08:19:47;6.53;;;4.30;;
31004;SDS011;17676;52.254;4.490;2023-12-14T08:22:13;6.37;;;4.60;;
31004;SDS011;17676;52.254;4.490;2023-12-14T08:24:40;7.53;;;4.63;;
31004;SDS011;17676;52.254;4.490;2023-12-14T08:27:06;9.37;;;4.67;;
31004;SDS011;17676;52.254;4.490;2023-12-14T08:29:32;7.83;;;4.70;;
31004;SDS011;17676;52.254;4.490;2023-12-14T08:31:58;8.40;;;4.95;;
31004;SDS011;17676;52.254;4.490;2023-12-14T08:34:24;9.03;;;4.67;;
31004;SDS011;17676;52.254;4.490;2023-12-14T08:36:51;8.60;;;3.90;;
31004;SDS011;17676;52.254;4.490;2023-12-14T08:39:16;7.47;;;4.47;;
31004;SDS011;17676;52.254;4.490;2023-12-14T08:41:43;7.83;;;4.37;;
31004;SDS011;17676;52.254;4.490;2023-12-14T08:44:10;8.52;;;4.20;;
31004;SDS011;17676;52.254;4.490;2023-12-14T08:46:44;5.43;;;3.30;;
31004;SDS011;17676;52.254;4.490;2023-12-14T08:49:11;5.28;;;3.33;;
31004;SDS011;17676;52.254;4.490;2023-12-14T08:51:38;7.63;;;3.50;;
31004;SDS011;17676;52.254;4.490;2023-12-14T08:54:04;3.72;;;3.33;;
31004;SDS011;17676;52.254;4.490;2023-12-14T08:56:30;10.40;;;3.38;;
31004;SDS011;17676;52.254;4.490;2023-12-14T08:58:57;5.03;;;2.88;;
31004;SDS011;17676;52.254;4.490;2023-12-14T09:01:24;4.50;;;2.72;;
31004;SDS011;17676;52.254;4.490;2023-12-14T09:03:50;8.35;;;3.10;;
31004;SDS011;17676;52.254;4.490;2023-12-14T09:06:16;5.47;;;2.60;;
31004;SDS011;17676;52.254;4.490;2023-12-14T09:08:43;8.73;;;3.10;;
31004;SDS011;17676;52.254;4.490;2023-12-14T09:11:09;6.78;;;3.63;;
31004;SDS011;17676;52.254;4.490;2023-12-14T09:13:35;8.52;;;3.20;;
31004;SDS011;17676;52.254;4.490;2023-12-14T09:16:01;4.85;;;2.70;;
31004;SDS011;17676;52.254;4.490;2023-12-14T09:18:26;6.60;;;3.15;;
31004;SDS011;17676;52.254;4.490;2023-12-14T09:20:52;8.95;;;3.03;;
31004;SDS011;17676;52.254;4.490;2023-12-14T09:23:18;8.98;;;2.97;;
31004;SDS011;17676;52.254;4.490;2023-12-14T09:25:44;10.55;;;3.20;;
31004;SDS011;17676;52.254;4.490;2023-12-14T09:28:10;5.43;;;2.65;;
31004;SDS011;17676;52.254;4.490;2023-12-14T09:30:36;14.60;;;3.25;;
31004;SDS011;17676;52.254;4.490;2023-12-14T09:33:01;6.90;;;2.45;;
31004;SDS011;17676;52.254;4.490;2023-12-14T09:35:27;7.80;;;3.42;;
31004;SDS011;17676;52.254;4.490;2023-12-14T09:37:53;6.55;;;3.47;;
31004;SDS011;17676;52.254;4.490;2023-12-14T09:40:18;5.60;;;3.28;;
31004;SDS011;17676;52.254;4.490;2023-12-14T09:42:44;4.25;;;2.95;;
31004;SDS011;17676;52.254;4.490;2023-12-14T09:45:10;4.88;;;3.20;;
31004;SDS011;17676;52.254;4.490;2023-12-14T09:47:37;7.07;;;3.58;;
31004;SDS011;17676;52.254;4.490;2023-12-14T09:50:03;5.00;;;3.17;;
31004;SDS011;17676;52.254;4.490;2023-12-14T09:52:33;12.93;;;3.90;;
31004;SDS011;17676;52.254;4.490;2023-12-14T09:54:59;6.10;;;3.25;;
31004;SDS011;17676;52.254;4.490;2023-12-14T09:57:24;12.73;;;4.18;;
31004;SDS011;17676;52.254;4.490;2023-12-14T09:59:55;9.82;;;4.13;;
31004;SDS011;17676;52.254;4.490;2023-12-14T10:02:29;7.18;;;3.85;;
31004;SDS011;17676;52.254;4.490;2023-12-14T10:05:00;4.47;;;3.90;;
31004;SDS011;17676;52.254;4.490;2023-12-14T10:07:25;10.18;;;3.90;;
31004;SDS011;17676;52.254;4.490;2023-12-14T10:09:51;9.32;;;3.97;;
31004;SDS011;17676;52.254;4.490;2023-12-14T10:12:18;7.85;;;4.15;;
31004;SDS011;17676;52.254;4.490;2023-12-14T10:14:44;4.88;;;3.03;;
31004;SDS011;17676;52.254;4.490;2023-12-14T10:17:20;5.88;;;3.63;;
31004;SDS011;17676;52.254;4.490;2023-12-14T10:19:49;13.02;;;4.47;;
31004;SDS011;17676;52.254;4.490;2023-12-14T10:22:15;5.30;;;3.22;;
31004;SDS011;17676;52.254;4.490;2023-12-14T10:24:46;6.55;;;3.63;;
31004;SDS011;17676;52.254;4.490;2023-12-14T10:27:13;8.88;;;3.97;;
31004;SDS011;17676;52.254;4.490;2023-12-14T10:29:40;6.35;;;3.95;;
31004;SDS011;17676;52.254;4.490;2023-12-14T10:32:07;9.43;;;3.92;;
31004;SDS011;17676;52.254;4.490;2023-12-14T10:34:34;9.60;;;4.10;;
31004;SDS011;17676;52.254;4.490;2023-12-14T10:37:04;9.38;;;3.90;;
31004;SDS011;17676;52.254;4.490;2023-12-14T10:39:31;11.23;;;5.13;;
31004;SDS011;17676;52.254;4.490;2023-12-14T10:41:58;8.02;;;4.43;;
31004;SDS011;17676;52.254;4.490;2023-12-14T10:44:29;9.88;;;4.47;;
31004;SDS011;17676;52.254;4.490;2023-12-14T10:46:58;8.40;;;4.90;;
31004;SDS011;17676;52.254;4.490;2023-12-14T10:49:25;7.25;;;4.45;;
31004;SDS011;17676;52.254;4.490;2023-12-14T10:51:52;8.45;;;4.78;;
31004;SDS011;17676;52.254;4.490;2023-12-14T10:54:20;8.70;;;5.00;;
31004;SDS011;17676;52.254;4.490;2023-12-14T10:56:46;9.38;;;4.47;;
31004;SDS011;17676;52.254;4.490;2023-12-14T10:59:14;6.57;;;3.88;;
31004;SDS011;17676;52.254;4.490;2023-12-14T11:01:43;7.93;;;4.65;;
31004;SDS011;17676;52.254;4.490;2023-12-14T11:04:13;9.63;;;4.80;;
31004;SDS011;17676;52.254;4.490;2023-12-14T11:06:42;5.05;;;3.85;;
31004;SDS011;17676;52.254;4.490;2023-12-14T11:09:12;3.55;;;3.22;;
31004;SDS011;17676;52.254;4.490;2023-12-14T11:11:40;7.50;;;3.70;;
31004;SDS011;17676;52.254;4.490;2023-12-14T11:14:10;5.28;;;3.38;;
31004;SDS011;17676;52.254;4.490;2023-12-14T11:16:43;7.28;;;4.15;;
31004;SDS011;17676;52.254;4.490;2023-12-14T11:24:18;7.63;;;5.55;;
31004;SDS011;17676;52.254;4.490;2023-12-14T11:26:44;9.05;;;4.85;;
31004;SDS011;17676;52.254;4.490;2023-12-14T11:29:09;5.82;;;4.05;;
31004;SDS011;17676;52.254;4.490;2023-12-14T11:31:40;8.50;;;5.07;;
31004;SDS011;17676;52.254;4.490;2023-12-14T11:34:05;8.82;;;4.95;;
31004;SDS011;17676;52.254;4.490;2023-12-14T11:36:32;10.05;;;4.97;;
31004;SDS011;17676;52.254;4.490;2023-12-14T11:38:58;6.38;;;4.05;;
31004;SDS011;17676;52.254;4.490;2023-12-14T11:41:24;7.85;;;4.70;;
31004;SDS011;17676;52.254;4.490;2023-12-14T11:43:54;6.40;;;4.28;;
31004;SDS011;17676;52.254;4.490;2023-12-14T11:46:20;10.73;;;4.28;;
31004;SDS011;17676;52.254;4.490;2023-12-14T11:48:46;7.90;;;4.47;;
31004;SDS011;17676;52.254;4.490;2023-12-14T11:51:14;8.00;;;4.25;;
31004;SDS011;17676;52.254;4.490;2023-12-14T11:53:45;8.32;;;4.38;;
31004;SDS011;17676;52.254;4.490;2023-12-14T11:56:11;5.10;;;4.10;;
31004;SDS011;17676;52.254;4.490;2023-12-14T11:59:18;9.20;;;4.43;;
31004;SDS011;17676;52.254;4.490;2023-12-14T12:01:54;9.55;;;4.10;;
31004;SDS011;17676;52.254;4.490;2023-12-14T12:04:22;7.15;;;4.57;;
31004;SDS011;17676;52.254;4.490;2023-12-14T12:06:48;5.78;;;4.68;;
31004;SDS011;17676;52.254;4.490;2023-12-14T12:09:14;5.13;;;3.78;;
31004;SDS011;17676;52.254;4.490;2023-12-14T12:11:58;9.25;;;4.65;;
31004;SDS011;17676;52.254;4.490;2023-12-14T12:14:23;7.70;;;4.55;;
31004;SDS011;17676;52.254;4.490;2023-12-14T12:16:49;8.52;;;5.32;;
31004;SDS011;17676;52.254;4.490;2023-12-14T12:19:17;6.75;;;4.57;;
31004;SDS011;17676;52.254;4.490;2023-12-14T12:21:43;8.15;;;5.18;;
31004;SDS011;17676;52.254;4.490;2023-12-14T12:24:09;7.72;;;4.82;;
31004;SDS011;17676;52.254;4.490;2023-12-14T12:26:35;10.25;;;5.25;;
31004;SDS011;17676;52.254;4.490;2023-12-14T12:29:00;6.35;;;4.30;;
31004;SDS011;17676;52.254;4.490;2023-12-14T12:31:28;8.20;;;4.78;;
31004;SDS011;17676;52.254;4.490;2023-12-14T12:33:54;8.35;;;5.28;;
31004;SDS011;17676;52.254;4.490;2023-12-14T12:36:19;9.90;;;4.70;;
31004;SDS011;17676;52.254;4.490;2023-12-14T12:38:46;7.88;;;4.75;;
31004;SDS011;17676;52.254;4.490;2023-12-14T12:41:12;10.95;;;4.47;;
31004;SDS011;17676;52.254;4.490;2023-12-14T12:43:37;9.27;;;4.53;;
31004;SDS011;17676;52.254;4.490;2023-12-14T12:46:03;7.15;;;4.65;;
31004;SDS011;17676;52.254;4.490;2023-12-14T12:48:29;10.80;;;4.95;;
31004;SDS011;17676;52.254;4.490;2023-12-14T12:50:54;8.60;;;4.60;;
31004;SDS011;17676;52.254;4.490;2023-12-14T12:53:20;8.43;;;5.43;;
31004;SDS011;17676;52.254;4.490;2023-12-14T12:55:46;10.57;;;4.93;;
31004;SDS011;17676;52.254;4.490;2023-12-14T12:58:11;7.80;;;4.80;;
31004;SDS011;17676;52.254;4.490;2023-12-14T13:00:38;8.32;;;5.15;;
31004;SDS011;17676;52.254;4.490;2023-12-14T13:03:03;8.23;;;5.28;;
31004;SDS011;17676;52.254;4.490;2023-12-14T13:05:29;7.80;;;4.40;;
31004;SDS011;17676;52.254;4.490;2023-12-14T13:07:55;10.48;;;4.28;;
31004;SDS011;17676;52.254;4.490;2023-12-14T13:10:22;6.70;;;3.88;;
31004;SDS011;17676;52.254;4.490;2023-12-14T13:12:52;7.68;;;3.90;;
31004;SDS011;17676;52.254;4.490;2023-12-14T13:15:18;6.20;;;3.70;;
31004;SDS011;17676;52.254;4.490;2023-12-14T13:17:44;7.30;;;4.55;;
31004;SDS011;17676;52.254;4.490;2023-12-14T13:20:10;6.95;;;4.50;;
31004;SDS011;17676;52.254;4.490;2023-12-14T13:22:35;8.70;;;4.53;;
31004;SDS011;17676;52.254;4.490;2023-12-14T13:25:01;8.52;;;5.00;;
31004;SDS011;17676;52.254;4.490;2023-12-14T13:27:28;7.40;;;4.35;;
31004;SDS011;17676;52.254;4.490;2023-12-14T13:29:53;9.52;;;5.25;;
31004;SDS011;17676;52.254;4.490;2023-12-14T13:32:19;9.85;;;5.03;;
31004;SDS011;17676;52.254;4.490;2023-12-14T13:34:45;9.98;;;5.22;;
31004;SDS011;17676;52.254;4.490;2023-12-14T13:37:11;9.85;;;5.28;;
31004;SDS011;17676;52.254;4.490;2023-12-14T13:39:36;8.98;;;5.82;;
31004;SDS011;17676;52.254;4.490;2023-12-14T13:42:04;12.27;;;5.25;;
31004;SDS011;17676;52.254;4.490;2023-12-14T13:44:31;8.48;;;5.13;;
31004;SDS011;17676;52.254;4.490;2023-12-14T13:47:03;8.80;;;5.63;;
31004;SDS011;17676;52.254;4.490;2023-12-14T13:49:29;12.93;;;5.68;;
31004;SDS011;17676;52.254;4.490;2023-12-14T13:51:55;10.63;;;6.28;;
31004;SDS011;17676;52.254;4.490;2023-12-14T13:54:20;14.65;;;6.82;;
31004;SDS011;17676;52.254;4.490;2023-12-14T13:56:46;8.68;;;5.68;;
31004;SDS011;17676;52.254;4.490;2023-12-14T13:59:12;12.25;;;5.60;;
31004;SDS011;17676;52.254;4.490;2023-12-14T14:01:37;12.27;;;6.47;;
31004;SDS011;17676;52.254;4.490;2023-12-14T14:04:03;12.02;;;6.40;;
31004;SDS011;17676;52.254;4.490;2023-12-14T14:06:29;10.07;;;6.25;;
31004;SDS011;17676;52.254;4.490;2023-12-14T14:08:57;14.05;;;6.38;;
31004;SDS011;17676;52.254;4.490;2023-12-14T14:11:23;14.70;;;6.43;;
31004;SDS011;17676;52.254;4.490;2023-12-14T14:13:48;11.68;;;6.05;;
31004;SDS011;17676;52.254;4.490;2023-12-14T14:16:14;7.70;;;5.60;;
31004;SDS011;17676;52.254;4.490;2023-12-14T14:18:40;10.18;;;6.45;;
31004;SDS011;17676;52.254;4.490;2023-12-14T14:21:06;11.38;;;5.28;;
31004;SDS011;17676;52.254;4.490;2023-12-14T14:23:33;11.55;;;6.07;;
31004;SDS011;17676;52.254;4.490;2023-12-14T14:25:59;9.27;;;7.32;;
31004;SDS011;17676;52.254;4.490;2023-12-14T14:28:25;12.68;;;7.35;;
31004;SDS011;17676;52.254;4.490;2023-12-14T14:30:50;11.80;;;6.75;;
31004;SDS011;17676;52.254;4.490;2023-12-14T14:33:16;10.02;;;6.55;;
31004;SDS011;17676;52.254;4.490;2023-12-14T14:35:45;8.63;;;6.60;;
31004;SDS011;17676;52.254;4.490;2023-12-14T14:38:14;9.52;;;5.97;;
31004;SDS011;17676;52.254;4.490;2023-12-14T14:40:47;10.65;;;6.45;;
31004;SDS011;17676;52.254;4.490;2023-12-14T14:43:13;10.70;;;6.72;;